createdAt,value
2022-12-03T00:00:26.860Z,102647.66
2022-12-03T00:02:53.404Z,102649.31
2022-12-03T00:05:20.041Z,102640.69
2022-12-03T00:07:46.516Z,102639.84
2022-12-03T00:10:13.145Z,102633.03
2022-12-03T00:12:39.828Z,102640.81
2022-12-03T00:15:07.317Z,102632.06
2022-12-03T00:17:33.856Z,102632.19
2022-12-03T00:20:00.315Z,102632.34
2022-12-03T00:22:26.997Z,102635.63
2022-12-03T00:24:53.810Z,102635.63
2022-12-03T00:27:20.539Z,102644.38
2022-12-03T00:29:47.314Z,102635.63
2022-12-03T00:32:14.286Z,102628.78
2022-12-03T00:34:40.728Z,102628.78
2022-12-03T00:37:07.217Z,102627.13
2022-12-03T00:39:33.699Z,102630.56
2022-12-03T00:42:00.160Z,102615.09
2022-12-03T00:44:27.040Z,102613.16
2022-12-03T00:46:53.516Z,102612.34
2022-12-03T00:49:20.140Z,102617.69
2022-12-03T00:51:46.551Z,102610.72
2022-12-03T00:54:13.000Z,102616.88
2022-12-03T00:56:39.451Z,102610.06
2022-12-03T00:59:05.866Z,102614.28
2022-12-03T01:01:32.406Z,102610.19
2022-12-03T01:03:58.912Z,102607.72
2022-12-03T01:06:25.408Z,102601.72
2022-12-03T01:08:52.023Z,102605.97
2022-12-03T01:11:36.853Z,102598.97
2022-12-03T01:14:10.427Z,102592.00
2022-12-03T01:16:37.698Z,102598.16
2022-12-03T01:19:05.752Z,102593.78
2022-12-03T01:21:32.569Z,102591.84
2022-12-03T01:23:59.081Z,102594.59
2022-12-03T01:26:25.697Z,102589.38
2022-12-03T01:28:53.184Z,102596.22
2022-12-03T01:31:38.947Z,102586.66
2022-12-03T01:34:05.892Z,102583.06
2022-12-03T01:36:34.250Z,102583.88
2022-12-03T01:39:01.571Z,102591.69
2022-12-03T01:41:28.510Z,102589.91
2022-12-03T01:43:56.317Z,102590.72
2022-12-03T01:46:25.795Z,102594.97
2022-12-03T01:48:55.235Z,102586.06
2022-12-03T01:51:22.468Z,102587.84
2022-12-03T01:53:49.307Z,102587.84
2022-12-03T01:56:18.010Z,102593.03
2022-12-03T01:58:46.358Z,102585.25
2022-12-03T02:01:16.150Z,102587.03
2022-12-03T02:03:44.047Z,102588.66
2022-12-03T02:06:21.592Z,102585.09
2022-12-03T02:08:49.202Z,102583.31
2022-12-03T02:11:27.808Z,102584.13
2022-12-03T02:14:06.181Z,102580.44
2022-12-03T02:16:35.330Z,102577.84
2022-12-03T02:19:02.275Z,102583.84
2022-12-03T02:21:50.859Z,102574.28
2022-12-03T02:24:33.378Z,102583.72
2022-12-03T02:26:59.877Z,102581.81
2022-12-03T02:29:26.661Z,102569.63
2022-12-03T02:31:53.199Z,102581.81
2022-12-03T02:34:40.118Z,102575.63
2022-12-03T02:37:10.994Z,102576.47
2022-12-03T02:39:40.097Z,102571.13
2022-12-03T02:42:25.842Z,102579.59
2022-12-03T02:44:53.609Z,102577.00
2022-12-03T02:47:22.391Z,102568.22
2022-12-03T02:49:50.024Z,102564.66
2022-12-03T02:52:16.702Z,102567.94
2022-12-03T02:54:43.663Z,102571.38
2022-12-03T02:57:10.334Z,102563.41
2022-12-03T02:59:37.093Z,102566.84
2022-12-03T03:02:03.898Z,102566.69
2022-12-03T03:04:30.710Z,102563.28
2022-12-03T03:06:57.297Z,102559.72
2022-12-03T03:09:24.008Z,102554.50
2022-12-03T03:11:50.461Z,102552.72
2022-12-03T03:14:17.071Z,102546.56
2022-12-03T03:16:43.789Z,102556.81
2022-12-03T03:19:10.460Z,102559.16
2022-12-03T03:21:36.904Z,102556.69
2022-12-03T03:24:04.172Z,102553.13
2022-12-03T03:26:30.779Z,102543.53
2022-12-03T03:28:59.982Z,102544.34
2022-12-03T03:31:26.526Z,102541.91
2022-12-03T03:33:53.161Z,102544.34
2022-12-03T03:36:20.145Z,102540.75
2022-12-03T03:38:47.456Z,102536.22
2022-12-03T03:41:15.804Z,102538.00
2022-12-03T03:43:44.216Z,102534.31
2022-12-03T03:46:12.380Z,102534.31
2022-12-03T03:48:40.785Z,102542.94
2022-12-03T03:51:09.658Z,102534.16
2022-12-03T03:53:42.947Z,102527.16
2022-12-03T03:56:10.748Z,102536.63
2022-12-03T03:58:38.323Z,102528.00
2022-12-03T04:01:05.032Z,102523.47
2022-12-03T04:03:31.781Z,102533.06
2022-12-03T04:05:58.457Z,102520.84
2022-12-03T04:08:24.956Z,102527.84
2022-12-03T04:11:10.178Z,102522.50
2022-12-03T04:13:36.634Z,102523.19
2022-12-03T04:16:03.436Z,102517.97
2022-12-03T04:18:45.279Z,102518.78
2022-12-03T04:21:32.246Z,102515.38
2022-12-03T04:23:58.862Z,102514.41
2022-12-03T04:26:43.745Z,102510.00
2022-12-03T04:29:10.740Z,102510.00
2022-12-03T04:31:55.747Z,102508.22
2022-12-03T04:34:40.881Z,102511.66
2022-12-03T04:37:07.478Z,102508.09
2022-12-03T04:39:34.129Z,102502.88
2022-12-03T04:42:00.624Z,102502.06
2022-12-03T04:44:39.170Z,102503.84
2022-12-03T04:47:08.649Z,102503.84
2022-12-03T04:49:38.264Z,102509.06
2022-12-03T04:52:05.529Z,102495.22
2022-12-03T04:54:32.179Z,102501.25
2022-12-03T04:56:58.648Z,102501.25
2022-12-03T04:59:25.120Z,102504.81
2022-12-03T05:01:51.692Z,102502.06
2022-12-03T05:04:18.301Z,102497.69
2022-12-03T05:06:44.807Z,102495.06
2022-12-03T05:09:11.781Z,102497.69
2022-12-03T05:11:38.671Z,102501.25
2022-12-03T05:14:05.663Z,102502.06
2022-12-03T05:16:32.249Z,102502.88
2022-12-03T05:18:58.833Z,102500.44
2022-12-03T05:21:25.405Z,102497.81
2022-12-03T05:23:51.935Z,102493.44
2022-12-03T05:26:18.508Z,102489.34
2022-12-03T05:28:45.124Z,102495.50
2022-12-03T05:31:11.689Z,102496.47
2022-12-03T05:33:43.790Z,102489.63
2022-12-03T05:36:10.915Z,102487.84
2022-12-03T05:38:37.479Z,102490.44
2022-12-03T05:41:24.286Z,102494.84
2022-12-03T05:43:50.896Z,102488.81
2022-12-03T05:46:17.405Z,102489.78
2022-12-03T05:48:44.138Z,102487.16
2022-12-03T05:51:10.668Z,102482.13
2022-12-03T05:53:37.206Z,102483.91
2022-12-03T05:56:03.843Z,102479.66
2022-12-03T05:58:30.364Z,102475.41
2022-12-03T06:00:56.824Z,102472.00
2022-12-03T06:03:23.625Z,102472.00
2022-12-03T06:05:50.164Z,102469.53
2022-12-03T06:08:16.737Z,102468.56
2022-12-03T06:10:43.268Z,102466.78
2022-12-03T06:13:09.693Z,102465.16
2022-12-03T06:15:41.953Z,102469.53
2022-12-03T06:18:10.090Z,102461.72
2022-12-03T06:20:36.543Z,102457.50
2022-12-03T06:23:03.010Z,102449.69
2022-12-03T06:25:29.529Z,102449.69
2022-12-03T06:27:55.980Z,102449.69
2022-12-03T06:30:22.429Z,102447.91
2022-12-03T06:32:48.941Z,102456.53
2022-12-03T06:35:15.574Z,102462.69
2022-12-03T06:37:42.060Z,102458.47
2022-12-03T06:40:09.109Z,102460.25
2022-12-03T06:42:35.555Z,102461.09
2022-12-03T06:45:02.048Z,102455.06
2022-12-03T06:47:28.545Z,102457.81
2022-12-03T06:49:55.071Z,102454.25
2022-12-03T06:52:21.537Z,102453.56
2022-12-03T06:54:47.983Z,102453.72
2022-12-03T06:57:14.489Z,102457.13
2022-12-03T06:59:40.976Z,102448.50
2022-12-03T07:02:07.541Z,102450.28
2022-12-03T07:04:34.080Z,102456.47
2022-12-03T07:07:00.697Z,102461.66
2022-12-03T07:09:27.543Z,102454.00
2022-12-03T07:11:54.006Z,102462.63
2022-12-03T07:14:20.591Z,102459.06
2022-12-03T07:16:47.646Z,102459.22
2022-12-03T07:19:14.353Z,102461.94
2022-12-03T07:21:40.952Z,102470.72
2022-12-03T07:24:07.741Z,102466.47
2022-12-03T07:26:34.376Z,102464.16
2022-12-03T07:29:00.938Z,102471.97
2022-12-03T07:31:27.627Z,102476.34
2022-12-03T07:33:54.141Z,102473.75
2022-12-03T07:36:20.739Z,102485.94
2022-12-03T07:38:47.246Z,102482.66
2022-12-03T07:41:13.704Z,102482.00
2022-12-03T07:43:40.169Z,102486.22
2022-12-03T07:46:06.670Z,102483.63
2022-12-03T07:48:33.147Z,102481.16
2022-12-03T07:50:59.760Z,102480.63
2022-12-03T07:53:26.252Z,102477.88
2022-12-03T07:55:53.304Z,102484.88
2022-12-03T07:58:19.873Z,102481.31
2022-12-03T08:00:48.565Z,102472.69
2022-12-03T08:03:15.108Z,102474.31
2022-12-03T08:05:41.532Z,102472.69
2022-12-03T08:08:08.137Z,102473.78
2022-12-03T08:10:34.937Z,102478.72
2022-12-03T08:13:05.028Z,102476.09
2022-12-03T08:15:37.267Z,102471.88
2022-12-03T08:18:15.983Z,102476.25
2022-12-03T08:20:45.335Z,102466.13
2022-12-03T08:23:15.118Z,102470.50
2022-12-03T08:25:42.480Z,102464.50
2022-12-03T08:28:14.343Z,102454.91
2022-12-03T08:30:42.757Z,102457.66
2022-12-03T08:33:17.871Z,102459.44
2022-12-03T08:35:50.805Z,102461.22
2022-12-03T08:38:19.959Z,102463.66
2022-12-03T08:40:48.626Z,102463.97
2022-12-03T08:43:25.435Z,102467.84
2022-12-03T08:45:54.410Z,102469.75
2022-12-03T08:48:38.216Z,102469.75
2022-12-03T08:51:12.982Z,102460.31
2022-12-03T08:53:46.491Z,102461.00
2022-12-03T08:56:21.626Z,102455.78
2022-12-03T08:58:52.569Z,102458.41
2022-12-03T09:01:42.817Z,102462.63
2022-12-03T09:04:21.610Z,102453.56
2022-12-03T09:06:48.710Z,102457.13
2022-12-03T09:09:15.361Z,102448.50
2022-12-03T09:11:43.327Z,102449.63
2022-12-03T09:14:15.136Z,102444.25
2022-12-03T09:16:44.861Z,102441.97
2022-12-03T09:19:11.393Z,102450.59
2022-12-03T09:21:37.881Z,102442.13
2022-12-03T09:24:04.628Z,102441.31
2022-12-03T09:26:31.057Z,102438.56
2022-12-03T09:28:57.570Z,102438.16
2022-12-03T09:31:24.354Z,102439.50
2022-12-03T09:33:51.010Z,102433.63
2022-12-03T09:36:17.514Z,102437.19
2022-12-03T09:38:47.754Z,102440.63
2022-12-03T09:41:14.854Z,102432.00
2022-12-03T09:46:29.846Z,102448.72
2022-12-03T09:48:56.722Z,102447.22
2022-12-03T09:51:27.982Z,102441.59
2022-12-03T09:53:54.521Z,102438.03
2022-12-03T09:56:23.576Z,102445.00
2022-12-03T09:58:50.452Z,102449.38
2022-12-03T10:01:17.665Z,102442.69
2022-12-03T10:03:52.458Z,102443.66
2022-12-03T10:06:23.909Z,102442.69
2022-12-03T10:08:54.396Z,102445.28
2022-12-03T10:11:24.168Z,102453.91
2022-12-03T10:13:51.190Z,102449.81
2022-12-03T10:16:20.912Z,102455.00
2022-12-03T10:18:51.490Z,102450.06
2022-12-03T10:21:24.209Z,102441.97
2022-12-03T10:24:19.216Z,102446.50
2022-12-03T10:26:47.388Z,102444.63
2022-12-03T10:29:17.925Z,102447.25
2022-12-03T10:31:45.126Z,102447.38
2022-12-03T10:34:11.882Z,102447.38
2022-12-03T10:36:38.364Z,102438.63
2022-12-03T10:39:09.585Z,102435.22
2022-12-03T10:41:37.740Z,102435.50
2022-12-03T10:44:22.389Z,102438.91
2022-12-03T10:47:07.364Z,102429.06
2022-12-03T10:49:34.946Z,102422.25
2022-12-03T10:52:02.176Z,102413.47
2022-12-03T10:54:31.223Z,102411.28
2022-12-03T10:56:57.880Z,102406.06
2022-12-03T10:59:28.315Z,102400.88
2022-12-03T11:01:54.781Z,102406.66
2022-12-03T11:04:35.353Z,102401.50
2022-12-03T11:07:03.409Z,102401.22
2022-12-03T11:09:32.324Z,102404.78
2022-12-03T11:12:07.604Z,102407.66
2022-12-03T11:14:54.690Z,102397.84
2022-12-03T11:17:46.985Z,102396.06
2022-12-03T11:20:36.115Z,102391.97
2022-12-03T11:23:02.609Z,102382.38
2022-12-03T11:25:29.191Z,102389.50
2022-12-03T11:28:14.058Z,102385.53
2022-12-03T11:30:56.808Z,102380.75
2022-12-03T11:33:29.233Z,102367.63
2022-12-03T11:36:05.336Z,102377.47
2022-12-03T11:38:38.234Z,102375.56
2022-12-03T11:41:32.012Z,102368.44
2022-12-03T11:43:59.560Z,102359.38
2022-12-03T11:46:41.994Z,102361.31
2022-12-03T11:49:39.457Z,102351.44
2022-12-03T11:52:22.085Z,102352.56
2022-12-03T11:54:53.274Z,102350.91
2022-12-03T11:57:45.466Z,102350.09
2022-12-03T12:00:23.462Z,102356.13
2022-12-03T12:02:52.285Z,102356.41
2022-12-03T12:05:32.633Z,102345.72
2022-12-03T12:08:01.244Z,102350.91
2022-12-03T12:10:41.986Z,102346.53
2022-12-03T12:13:30.364Z,102340.81
2022-12-03T12:15:58.330Z,102333.69
2022-12-03T12:18:33.996Z,102336.16
2022-12-03T12:21:38.809Z,102330.41
2022-12-03T12:24:47.378Z,102321.94
2022-12-03T12:27:30.671Z,102324.69
2022-12-03T12:29:59.805Z,102319.63
2022-12-03T12:32:26.475Z,102306.63
2022-12-03T12:34:57.825Z,102307.31
2022-12-03T12:37:33.778Z,102303.75
2022-12-03T12:40:06.445Z,102302.94
2022-12-03T12:42:38.438Z,102301.72
2022-12-03T12:45:17.373Z,102295.84
2022-12-03T12:47:56.520Z,102301.06
2022-12-03T12:50:23.021Z,102289.41
2022-12-03T12:52:52.692Z,102296.78
2022-12-03T12:55:19.353Z,102292.69
2022-12-03T12:57:46.225Z,102291.34
2022-12-03T13:00:22.198Z,102296.25
2022-12-03T13:03:11.168Z,102293.22
2022-12-03T13:05:43.164Z,102291.72
2022-12-03T13:08:20.936Z,102289.94
2022-12-03T13:10:47.758Z,102287.34
2022-12-03T13:13:31.016Z,102284.47
2022-12-03T13:15:59.704Z,102291.56
2022-12-03T13:18:48.418Z,102286.41
2022-12-03T13:21:36.211Z,102289.03
2022-12-03T13:24:10.353Z,102284.78
2022-12-03T13:26:39.751Z,102281.22
2022-12-03T13:29:18.450Z,102277.28
2022-12-03T13:32:16.003Z,102280.84
2022-12-03T13:34:42.784Z,102279.88
2022-12-03T13:37:14.308Z,102281.38
2022-12-03T13:39:47.621Z,102274.97
2022-12-03T13:42:39.452Z,102274.16
2022-12-03T13:45:15.088Z,102263.41
2022-12-03T13:47:43.791Z,102266.97
2022-12-03T13:50:40.938Z,102263.81
2022-12-03T13:53:23.543Z,102266.03
2022-12-03T13:56:16.187Z,102256.59
2022-12-03T13:58:42.645Z,102262.75
2022-12-03T14:01:09.256Z,102259.34
2022-12-03T14:03:35.692Z,102263.31
2022-12-03T14:06:02.140Z,102262.94
2022-12-03T14:08:28.586Z,102269.38
2022-12-03T14:11:00.538Z,102261.22
2022-12-03T14:13:27.338Z,102264.78
2022-12-03T14:15:53.996Z,102254.66
2022-12-03T14:18:20.572Z,102252.75
2022-12-03T14:20:48.230Z,102254.66
2022-12-03T14:23:14.927Z,102251.66
2022-12-03T14:25:43.816Z,102242.25
2022-12-03T14:28:10.796Z,102241.16
2022-12-03T14:30:37.483Z,102242.94
2022-12-03T14:33:04.803Z,102241.16
2022-12-03T14:35:31.294Z,102241.97
2022-12-03T14:37:57.817Z,102236.34
2022-12-03T14:40:24.419Z,102245.91
2022-12-03T14:42:50.964Z,102234.56
2022-12-03T14:45:17.490Z,102240.31
2022-12-03T14:47:44.023Z,102236.88
2022-12-03T14:50:14.551Z,102236.88
2022-12-03T14:52:41.401Z,102240.13
2022-12-03T14:55:08.341Z,102239.47
2022-12-03T14:57:34.902Z,102243.03
2022-12-03T15:00:01.446Z,102245.63
2022-12-03T15:02:28.951Z,102244.81
2022-12-03T15:04:55.510Z,102241.25
2022-12-03T15:07:22.060Z,102236.88
2022-12-03T15:09:48.654Z,102238.66
2022-12-03T15:12:15.124Z,102239.47
2022-12-03T15:14:42.486Z,102239.63
2022-12-03T15:17:09.089Z,102245.63
2022-12-03T15:19:35.655Z,102239.47
2022-12-03T15:22:02.147Z,102235.91
2022-12-03T15:24:28.860Z,102236.22
2022-12-03T15:26:55.929Z,102237.84
2022-12-03T15:29:23.066Z,102236.34
2022-12-03T15:31:49.733Z,102243.19
2022-12-03T15:34:22.128Z,102238.13
2022-12-03T15:36:48.846Z,102237.44
2022-12-03T15:39:15.342Z,102235.00
2022-12-03T15:41:41.808Z,102237.06
2022-12-03T15:44:08.336Z,102233.78
2022-12-03T15:46:34.899Z,102241.56
2022-12-03T15:49:01.412Z,102238.28
2022-12-03T15:51:27.980Z,102247.84
2022-12-03T15:53:54.448Z,102252.22
2022-12-03T15:56:21.029Z,102246.34
2022-12-03T15:58:47.681Z,102247.31
2022-12-03T16:01:14.517Z,102254.44
2022-12-03T16:03:41.830Z,102241.59
2022-12-03T16:06:10.606Z,102246.66
2022-12-03T16:08:37.142Z,102244.03
2022-12-03T16:11:03.691Z,102243.09
2022-12-03T16:13:30.200Z,102245.00
2022-12-03T16:15:56.677Z,102245.97
2022-12-03T16:18:23.221Z,102242.41
2022-12-03T16:20:49.905Z,102244.19
2022-12-03T16:23:16.329Z,102242.13
2022-12-03T16:25:42.859Z,102243.09
2022-12-03T16:28:09.398Z,102241.72
2022-12-03T16:30:36.316Z,102243.50
2022-12-03T16:33:02.892Z,102240.09
2022-12-03T16:35:29.504Z,102243.66
2022-12-03T16:37:56.071Z,102237.50
2022-12-03T16:40:22.530Z,102239.13
2022-12-03T16:42:49.056Z,102232.03
2022-12-03T16:45:21.533Z,102239.53
2022-12-03T16:47:48.141Z,102225.19
2022-12-03T16:50:21.903Z,102211.13
2022-12-03T16:52:54.062Z,102217.56
2022-12-03T16:55:20.479Z,102227.13
2022-12-03T16:57:47.010Z,102215.09
2022-12-03T17:00:14.245Z,102215.78
2022-12-03T17:02:40.821Z,102210.88
2022-12-03T17:05:07.641Z,102215.25
2022-12-03T17:07:34.287Z,102218.66
2022-12-03T17:10:00.848Z,102214.28
2022-12-03T17:12:37.440Z,102216.88
2022-12-03T17:15:13.990Z,102226.56
2022-12-03T17:17:40.471Z,102221.66
2022-12-03T17:20:08.269Z,102217.59
2022-12-03T17:22:34.810Z,102223.75
2022-12-03T17:25:01.328Z,102221.16
2022-12-03T17:27:27.881Z,102222.13
2022-12-03T17:29:54.522Z,102217.06
2022-12-03T17:32:21.236Z,102223.06
2022-12-03T17:34:47.653Z,102223.06
2022-12-03T17:37:14.130Z,102225.53
2022-12-03T17:39:40.659Z,102224.56
2022-12-03T17:42:07.334Z,102221.16
2022-12-03T17:44:33.841Z,102222.13
2022-12-03T17:47:00.390Z,102226.34
2022-12-03T17:49:31.319Z,102219.38
2022-12-03T17:51:58.406Z,102221.31
2022-12-03T17:54:34.102Z,102217.88
2022-12-03T17:57:11.574Z,102224.44
2022-12-03T17:59:38.051Z,102218.44
2022-12-03T18:02:04.688Z,102226.38
2022-12-03T18:04:31.316Z,102227.47
2022-12-03T18:07:02.110Z,102217.75
2022-12-03T18:09:29.041Z,102216.81
2022-12-03T18:11:55.577Z,102222.00
2022-12-03T18:14:22.029Z,102208.88
2022-12-03T18:16:48.514Z,102209.69
2022-12-03T18:19:30.098Z,102200.56
2022-12-03T18:21:56.663Z,102200.56
2022-12-03T18:24:23.779Z,102197.69
2022-12-03T18:26:50.548Z,102195.50
2022-12-03T18:29:17.190Z,102199.88
2022-12-03T18:31:43.704Z,102201.53
2022-12-03T18:34:10.215Z,102193.06
2022-12-03T18:36:37.026Z,102196.63
2022-12-03T18:39:05.990Z,102195.50
2022-12-03T18:41:33.424Z,102196.47
2022-12-03T18:44:03.535Z,102193.19
2022-12-03T18:46:53.507Z,102194.97
2022-12-03T18:49:17.702Z,102187.19
2022-12-03T18:51:44.211Z,102191.28
2022-12-03T18:54:14.054Z,102190.31
2022-12-03T18:56:41.323Z,102190.59
2022-12-03T18:59:08.283Z,102182.69
2022-12-03T19:01:35.235Z,102187.88
2022-12-03T19:04:02.319Z,102185.97
2022-12-03T19:06:30.580Z,102182.53
2022-12-03T19:08:57.712Z,102180.09
2022-12-03T19:11:24.524Z,102181.03
2022-12-03T19:13:51.834Z,102187.34
2022-12-03T19:16:19.026Z,102189.78
2022-12-03T19:18:45.882Z,102188.81
2022-12-03T19:21:14.864Z,102197.44
2022-12-03T19:23:47.223Z,102198.25
2022-12-03T19:26:21.070Z,102188.16
2022-12-03T19:28:47.591Z,102187.75
2022-12-03T19:31:16.572Z,102182.69
2022-12-03T19:33:44.063Z,102188.03
2022-12-03T19:36:22.569Z,102184.47
2022-12-03T19:38:56.673Z,102184.47
2022-12-03T19:41:26.581Z,102182.69
2022-12-03T19:43:55.330Z,102179.97
2022-12-03T19:46:24.170Z,102171.22
2022-12-03T19:48:50.989Z,102178.06
2022-12-03T19:51:33.704Z,102169.59
2022-12-03T19:54:02.066Z,102164.41
2022-12-03T19:56:30.242Z,102171.50
2022-12-03T19:58:57.636Z,102173.97
2022-12-03T20:01:27.863Z,102163.03
2022-12-03T20:03:56.746Z,102175.34
2022-12-03T20:06:26.056Z,102168.50
2022-12-03T20:09:01.203Z,102174.50
2022-12-03T20:11:30.865Z,102171.09
2022-12-03T20:14:16.552Z,102185.03
2022-12-03T20:16:44.348Z,102181.47
2022-12-03T20:19:13.480Z,102185.72
2022-12-03T20:21:40.149Z,102177.94
2022-12-03T20:24:08.110Z,102180.53
2022-12-03T20:26:34.784Z,102180.81
2022-12-03T20:29:01.831Z,102166.19
2022-12-03T20:31:30.897Z,102169.47
2022-12-03T20:34:00.279Z,102163.59
2022-12-03T20:36:28.453Z,102163.59
2022-12-03T20:38:57.375Z,102159.53
2022-12-03T20:41:24.474Z,102163.09
2022-12-03T20:43:51.727Z,102162.13
2022-12-03T20:46:29.506Z,102155.31
2022-12-03T20:48:57.249Z,102149.16
2022-12-03T20:51:26.605Z,102155.44
2022-12-03T20:53:53.519Z,102149.44
2022-12-03T20:56:26.666Z,102142.50
2022-12-03T20:58:53.753Z,102137.44
2022-12-03T21:01:26.568Z,102139.06
2022-12-03T21:03:55.314Z,102139.06
2022-12-03T21:06:23.682Z,102141.00
2022-12-03T21:08:52.403Z,102145.34
2022-12-03T21:11:23.912Z,102139.34
2022-12-03T21:13:50.784Z,102137.72
2022-12-03T21:16:34.135Z,102139.34
2022-12-03T21:19:07.785Z,102138.41
2022-12-03T21:21:35.451Z,102144.25
2022-12-03T21:24:02.073Z,102144.13
2022-12-03T21:26:28.593Z,102138.25
2022-12-03T21:28:55.513Z,102133.22
2022-12-03T21:31:25.767Z,102130.63
2022-12-03T21:33:56.619Z,102133.34
2022-12-03T21:36:24.680Z,102134.31
2022-12-03T21:38:51.624Z,102133.63
2022-12-03T21:41:18.268Z,102130.34
2022-12-03T21:43:45.046Z,102138.81
2022-12-03T21:47:12.137Z,102132.00
2022-12-03T21:49:01.523Z,102137.19
2022-12-03T21:51:28.131Z,102130.09
2022-12-03T21:53:54.845Z,102134.44
2022-12-03T21:56:21.552Z,102137.19
2022-12-03T21:58:48.096Z,102130.22
2022-12-03T22:01:19.110Z,102140.59
2022-12-03T22:03:46.257Z,102134.44
2022-12-03T22:06:13.264Z,102118.06
2022-12-03T22:08:40.372Z,102126.00
2022-12-03T22:11:09.715Z,102125.16
2022-12-03T22:13:38.527Z,102122.72
2022-12-03T22:16:10.424Z,102128.72
2022-12-03T22:18:37.299Z,102127.63
2022-12-03T22:21:09.313Z,102122.44
2022-12-03T22:23:35.829Z,102119.16
2022-12-03T22:26:05.064Z,102119.97
2022-12-03T22:28:32.491Z,102119.97
2022-12-03T22:30:59.124Z,102118.34
2022-12-03T22:33:25.681Z,102124.22
2022-12-03T22:36:03.883Z,102115.63
2022-12-03T22:38:31.795Z,102128.44
2022-12-03T22:40:59.907Z,102125.84
2022-12-03T22:43:26.660Z,102121.34
2022-12-03T22:45:54.763Z,102122.44
2022-12-03T22:48:22.198Z,102123.25
2022-12-03T22:50:49.494Z,102114.53
2022-12-03T22:53:16.071Z,102111.13
2022-12-03T22:55:42.626Z,102114.53
2022-12-03T22:58:09.997Z,102119.72
2022-12-03T23:00:39.207Z,102112.06
2022-12-03T23:03:06.969Z,102110.28
2022-12-03T23:05:36.848Z,102104.16
2022-12-03T23:08:05.289Z,102109.34
2022-12-03T23:10:36.840Z,102098.81
2022-12-03T23:13:04.721Z,102100.75
2022-12-03T23:15:32.368Z,102100.59
2022-12-03T23:17:59.014Z,102096.38
2022-12-03T23:20:26.371Z,102094.59
2022-12-03T23:22:53.335Z,102092.16
2022-12-03T23:25:20.439Z,102092.16
2022-12-03T23:27:47.434Z,102100.75
2022-12-03T23:30:15.769Z,102098.97
2022-12-03T23:32:44.517Z,102096.38
2022-12-03T23:35:12.186Z,102101.56
2022-12-03T23:37:38.718Z,102102.50
2022-12-03T23:40:05.998Z,102110.16
2022-12-03T23:42:32.506Z,102108.38
2022-12-03T23:44:59.033Z,102102.38
2022-12-03T23:47:25.489Z,102111.25
2022-12-03T23:49:52.196Z,102114.66
2022-12-03T23:52:18.774Z,102107.69
2022-12-03T23:54:45.521Z,102100.75
2022-12-03T23:57:12.838Z,102106.75
2022-12-03T23:59:39.732Z,102102.50
